Airfield :







YOU CAN JOIN US ON...

 
LOGIN :

Register | Disclaimer

   EN    FR    IT 

 









Legend :    VFR   Marginal VFR   IFR   Intensive IFR   Very Intensive IFR
Visi :
Ceiling :
>= 8 km
>= 3000ft
5 to 8 km
1000 to 3000 ft
1500m to 5 km
500 to 1000 ft
800 to 1500m
200 to 500 ft
< 800m
< 200 ft
Symbols :   Thunderstorms  Fog  Heavy snow  Heavy precipitations  Wind > 20 kt






- Airport Elevation : 1663 ft
- IATA code : SLK


KSLK - Adirondack Regional

CURRENT METAR :
  • 110751Z AUTO VRB03KT 10SM OVC027 M10/M15 A3007 RMK AO2 SLP208 T11001150

EXPIRED METARs :
  • 110723Z AUTO VRB05KT 10SM OVC029 M10/M15 A3007 RMK AO2 T11001150
  • 110651Z AUTO VRB05KT 10SM OVC031 M09/M15 A3006 RMK AO2 SLP204 T10941150
  • 110551Z AUTO VRB06KT 10SM OVC032 M09/M13 A3005 RMK AO2 SNE0452 SLP200 P0000 60000 T10891133 11017 21089 53024

TAF KSLK
Valid from the 11 at 06:00 until the 12 at 06:00 UTC


110530Z 1106/1206 VRB04KT P6SM SCT028 BKN050
FM111500 22005KT P6SM SCT100
FM112200 22011KT 4SM -SHSN BR BKN025 BKN045
FM120100 26015G25KT P6SM VCSH BKN040



MET'MAP, your aeronautical weather chart ! - Copyright ORBIFLY December 2007 - Disclaimer

ORBIFLY MET'MAP TEAM :

Programming & Development : Alexandra Zaïnal
Concept & original design : Baudouin d'Aumeries
Assistance for programming : Marc-Olivier Méhu
Technical & hardware support : Manuel Goepfert

Contact : metmap@orbifly.com




SOURCES & CREDITS :

   NOAA